createdAt,value
2023-04-15T00:01:45.246Z,98175.44
2023-04-15T00:04:13.076Z,98180.69
2023-04-15T00:06:42.225Z,98174.44
2023-04-15T00:09:09.832Z,98174.22
2023-04-15T00:11:37.520Z,98176.28
2023-04-15T00:14:06.204Z,98165.03
2023-04-15T00:16:33.873Z,98166.63
2023-04-15T00:19:01.596Z,98164.91
2023-04-15T00:21:29.472Z,98158.75
2023-04-15T00:23:58.396Z,98160.47
2023-04-15T00:26:26.308Z,98158.81
2023-04-15T00:28:54.027Z,98155.69
2023-04-15T00:31:24.617Z,98153.19
2023-04-15T00:33:52.409Z,98160.59
2023-04-15T00:36:20.057Z,98156.94
2023-04-15T00:38:48.270Z,98152.53
2023-04-15T00:41:17.828Z,98144.34
2023-04-15T00:43:45.449Z,98152.78
2023-04-15T00:46:14.262Z,98157.09
2023-04-15T00:48:42.473Z,98157.03
2023-04-15T00:51:10.646Z,98154.16
2023-04-15T00:53:38.273Z,98159.59
2023-04-15T00:56:06.768Z,98149.69
2023-04-15T00:58:37.243Z,98163.50
2023-04-15T01:01:05.487Z,98161.88
2023-04-15T01:03:33.204Z,98158.75
2023-04-15T01:06:04.034Z,98152.78
2023-04-15T01:08:32.325Z,98147.56
2023-04-15T01:11:00.329Z,98153.78
2023-04-15T01:13:28.090Z,98151.16
2023-04-15T01:15:58.102Z,98148.66
2023-04-15T01:18:25.802Z,98146.31
2023-04-15T01:20:53.939Z,98145.75
2023-04-15T01:23:23.542Z,98147.66
2023-04-15T01:25:52.657Z,98155.44
2023-04-15T01:28:20.429Z,98160.16
2023-04-15T01:30:48.438Z,98134.78
2023-04-15T01:33:16.031Z,98146.88
2023-04-15T01:35:44.224Z,98137.19
2023-04-15T01:38:13.561Z,98135.97
2023-04-15T01:40:41.526Z,98138.75
2023-04-15T01:43:10.720Z,98151.13
2023-04-15T01:45:38.281Z,98144.97
2023-04-15T01:48:07.117Z,98143.88
2023-04-15T01:50:36.784Z,98147.28
2023-04-15T01:53:04.674Z,98146.09
2023-04-15T01:55:32.534Z,98140.88
2023-04-15T01:58:00.142Z,98147.00
2023-04-15T02:00:29.319Z,98139.09
2023-04-15T02:02:57.044Z,98143.41
2023-04-15T02:05:25.229Z,98142.63
2023-04-15T02:07:53.863Z,98143.53
2023-04-15T02:10:21.770Z,98142.03
2023-04-15T02:12:49.346Z,98148.72
2023-04-15T02:15:17.462Z,98152.88
2023-04-15T02:17:50.972Z,98155.00
2023-04-15T02:20:21.064Z,98143.75
2023-04-15T02:22:49.278Z,98155.84
2023-04-15T02:25:18.211Z,98151.78
2023-04-15T02:27:45.788Z,98154.44
2023-04-15T02:30:13.576Z,98159.38
2023-04-15T02:32:43.748Z,98160.69
2023-04-15T02:35:13.261Z,98151.88
2023-04-15T02:37:43.898Z,98156.25
2023-04-15T02:40:13.254Z,98162.28
2023-04-15T02:42:41.042Z,98161.44
2023-04-15T02:45:09.871Z,98155.28
2023-04-15T02:47:38.057Z,98159.59
2023-04-15T02:50:07.114Z,98151.88
2023-04-15T02:52:36.199Z,98154.50
2023-04-15T02:55:05.152Z,98162.53
2023-04-15T02:57:32.942Z,98158.53
2023-04-15T03:00:00.743Z,98164.59
2023-04-15T03:02:28.609Z,98163.69
2023-04-15T03:04:56.614Z,98164.47
2023-04-15T03:07:24.456Z,98159.63
2023-04-15T03:09:53.422Z,98170.06
2023-04-15T03:12:21.181Z,98168.97
2023-04-15T03:14:48.773Z,98164.66
2023-04-15T03:17:16.533Z,98165.75
2023-04-15T03:19:45.280Z,98164.09
2023-04-15T03:22:12.876Z,98169.47
2023-04-15T03:24:40.676Z,98165.16
2023-04-15T03:27:09.915Z,98162.59
2023-04-15T03:29:37.561Z,98160.03
2023-04-15T03:32:05.728Z,98167.16
2023-04-15T03:34:33.420Z,98152.69
2023-04-15T03:37:01.022Z,98166.41
2023-04-15T03:39:28.583Z,98159.97
2023-04-15T03:41:56.457Z,98164.56
2023-04-15T03:44:25.529Z,98164.06
2023-04-15T03:46:53.329Z,98168.97
2023-04-15T03:49:22.934Z,98165.88
2023-04-15T03:51:50.649Z,98165.31
2023-04-15T03:54:18.424Z,98163.56
2023-04-15T03:56:46.053Z,98164.38
2023-04-15T03:59:13.984Z,98168.63
2023-04-15T04:01:43.084Z,98166.81
2023-04-15T04:04:10.748Z,98164.88
2023-04-15T04:06:38.658Z,98165.88
2023-04-15T04:09:06.383Z,98172.94
2023-04-15T04:11:34.137Z,98167.75
2023-04-15T04:14:02.100Z,98160.56
2023-04-15T04:16:29.973Z,98173.97
2023-04-15T04:18:59.232Z,98166.47
2023-04-15T04:21:27.527Z,98172.31
2023-04-15T04:23:55.153Z,98170.09
2023-04-15T04:26:22.930Z,98168.84
2023-04-15T04:28:50.761Z,98176.56
2023-04-15T04:31:18.411Z,98176.91
2023-04-15T04:33:46.455Z,98172.91
2023-04-15T04:36:15.538Z,98177.28
2023-04-15T04:38:43.150Z,98178.41
2023-04-15T04:41:10.873Z,98171.00
2023-04-15T04:43:38.798Z,98183.63
2023-04-15T04:46:06.597Z,98180.53
2023-04-15T04:48:34.357Z,98181.06
2023-04-15T04:51:01.933Z,98167.03
2023-04-15T04:53:31.061Z,98151.56
2023-04-15T04:55:58.645Z,98178.25
2023-04-15T04:58:26.309Z,98182.34
2023-04-15T05:00:54.020Z,98184.97
2023-04-15T05:03:21.943Z,98177.09
2023-04-15T05:05:50.174Z,98175.69
2023-04-15T05:08:17.834Z,98180.38
2023-04-15T05:10:48.496Z,98179.75
2023-04-15T05:13:16.429Z,98184.84
2023-04-15T05:15:44.832Z,98188.59
2023-04-15T05:18:12.392Z,98179.97
2023-04-15T05:20:40.353Z,98193.09
2023-04-15T05:23:07.945Z,98203.59
2023-04-15T05:25:35.618Z,98201.38
2023-04-15T05:28:04.784Z,98194.22
2023-04-15T05:30:32.392Z,98198.91
2023-04-15T05:33:00.135Z,98196.81
2023-04-15T05:35:27.948Z,98200.59
2023-04-15T05:37:55.839Z,98202.19
2023-04-15T05:40:23.473Z,98182.94
2023-04-15T05:42:51.336Z,98191.91
2023-04-15T05:45:20.461Z,98195.94
2023-04-15T05:47:50.582Z,98200.75
2023-04-15T05:50:18.491Z,98200.88
2023-04-15T05:52:46.316Z,98205.56
2023-04-15T05:55:14.274Z,98203.38
2023-04-15T05:57:41.908Z,98208.19
2023-04-15T06:00:10.887Z,98202.59
2023-04-15T06:02:39.915Z,98209.41
2023-04-15T06:05:09.729Z,98207.56
2023-04-15T06:07:37.760Z,98207.97
2023-04-15T06:10:06.470Z,98203.78
2023-04-15T06:12:34.140Z,98189.06
2023-04-15T06:15:01.758Z,98192.47
2023-04-15T06:17:29.531Z,98199.91
2023-04-15T06:19:58.692Z,98200.47
2023-04-15T06:22:26.510Z,98190.28
2023-04-15T06:24:54.128Z,98191.13
2023-04-15T06:27:22.986Z,98201.47
2023-04-15T06:29:50.675Z,98213.25
2023-04-15T06:32:18.296Z,98219.50
2023-04-15T06:34:45.873Z,98216.75
2023-04-15T06:37:16.313Z,98217.59
2023-04-15T06:39:44.585Z,98214.91
2023-04-15T06:42:12.360Z,98217.47
2023-04-15T06:44:40.204Z,98226.41
2023-04-15T06:47:09.086Z,98227.19
2023-04-15T06:49:36.701Z,98224.91
2023-04-15T06:52:05.400Z,98228.38
2023-04-15T06:54:34.360Z,98229.44
2023-04-15T06:57:01.972Z,98220.78
2023-04-15T06:59:29.724Z,98227.41
2023-04-15T07:01:57.470Z,98224.88
2023-04-15T07:04:25.672Z,98225.75
2023-04-15T07:06:53.961Z,98223.97
2023-04-15T07:09:21.651Z,98220.72
2023-04-15T07:11:51.416Z,98219.75
2023-04-15T07:14:19.354Z,98218.94
2023-04-15T07:16:47.199Z,98217.47
2023-04-15T07:19:15.119Z,98221.06
2023-04-15T07:21:42.857Z,98214.56
2023-04-15T07:24:11.126Z,98222.63
2023-04-15T07:26:38.823Z,98215.00
2023-04-15T07:29:07.906Z,98222.50
2023-04-15T07:31:36.723Z,98202.03
2023-04-15T07:34:04.774Z,98223.94
2023-04-15T07:36:32.336Z,98224.13
2023-04-15T07:39:02.097Z,98233.84
2023-04-15T07:41:30.033Z,98232.78
2023-04-15T07:43:57.627Z,98221.97
2023-04-15T07:46:27.293Z,98224.34
2023-04-15T07:48:54.980Z,98235.28
2023-04-15T07:51:22.607Z,98230.72
2023-04-15T07:53:50.592Z,98235.31
2023-04-15T07:56:18.262Z,98232.59
2023-04-15T07:58:46.054Z,98233.88
2023-04-15T08:01:13.722Z,98233.97
2023-04-15T08:03:43.185Z,98241.00
2023-04-15T08:06:10.906Z,98237.28
2023-04-15T08:08:38.559Z,98243.38
2023-04-15T08:11:06.385Z,98240.31
2023-04-15T08:13:33.988Z,98247.94
2023-04-15T08:16:19.828Z,98246.28
2023-04-15T08:18:49.401Z,98243.91
2023-04-15T08:21:17.601Z,98250.34
2023-04-15T08:23:45.829Z,98240.28
2023-04-15T08:26:14.305Z,98245.13
2023-04-15T08:28:42.849Z,98258.81
2023-04-15T08:31:10.524Z,98253.75
2023-04-15T08:33:38.203Z,98253.00
2023-04-15T08:36:07.894Z,98259.22
2023-04-15T08:38:36.180Z,98260.53
2023-04-15T08:41:05.746Z,98271.75
2023-04-15T08:43:35.522Z,98264.25
2023-04-15T08:46:03.617Z,98266.06
2023-04-15T08:48:33.877Z,98276.34
2023-04-15T08:51:02.330Z,98270.91
2023-04-15T08:53:31.748Z,98268.34
2023-04-15T08:56:01.584Z,98268.63
2023-04-15T08:58:29.602Z,98269.00
2023-04-15T09:00:57.874Z,98280.47
2023-04-15T09:03:25.677Z,98282.28
2023-04-15T09:05:53.412Z,98276.41
2023-04-15T09:08:21.041Z,98278.00
2023-04-15T09:10:50.025Z,98278.31
2023-04-15T09:13:17.606Z,98277.16
2023-04-15T09:15:45.197Z,98276.78
2023-04-15T09:18:13.028Z,98274.63
2023-04-15T09:20:41.936Z,98279.00
2023-04-15T09:23:17.499Z,98288.44
2023-04-15T09:25:45.122Z,98290.94
2023-04-15T09:28:14.050Z,98292.34
2023-04-15T09:30:46.073Z,98286.53
2023-04-15T09:33:15.844Z,98287.59
2023-04-15T09:35:43.396Z,98288.25
2023-04-15T09:38:11.338Z,98286.28
2023-04-15T09:40:40.153Z,98289.44
2023-04-15T09:43:09.047Z,98285.94
2023-04-15T09:45:38.132Z,98287.41
2023-04-15T09:48:17.849Z,98292.28
2023-04-15T09:50:45.812Z,98294.81
2023-04-15T09:53:17.866Z,98295.69
2023-04-15T09:55:46.809Z,98294.53
2023-04-15T09:58:21.448Z,98293.13
2023-04-15T10:00:52.299Z,98296.50
2023-04-15T10:03:22.664Z,98295.03
2023-04-15T10:05:51.674Z,98287.06
2023-04-15T10:08:21.286Z,98294.31
2023-04-15T10:10:49.787Z,98300.38
2023-04-15T10:13:19.214Z,98295.78
2023-04-15T10:15:51.689Z,98291.06
2023-04-15T10:18:21.576Z,98296.28
2023-04-15T10:20:49.826Z,98306.69
2023-04-15T10:23:18.753Z,98301.50
2023-04-15T10:25:47.230Z,98299.59
2023-04-15T10:28:16.884Z,98303.69
2023-04-15T10:30:44.914Z,98300.31
2023-04-15T10:33:14.261Z,98307.81
2023-04-15T10:35:41.942Z,98304.03
2023-04-15T10:38:33.898Z,98317.81
2023-04-15T10:41:17.089Z,98319.72
2023-04-15T10:43:53.415Z,98316.28
2023-04-15T10:46:24.465Z,98324.34
2023-04-15T10:48:55.042Z,98319.34
2023-04-15T10:51:30.767Z,98323.81
2023-04-15T10:54:00.860Z,98323.44
2023-04-15T10:56:29.948Z,98324.69
2023-04-15T10:59:00.257Z,98329.38
2023-04-15T11:01:51.825Z,98337.31
2023-04-15T11:04:54.605Z,98338.44
2023-04-15T11:07:38.811Z,98338.88
2023-04-15T11:10:54.538Z,98341.13
2023-04-15T11:13:25.809Z,98342.78
2023-04-15T11:15:58.281Z,98348.59
2023-04-15T11:18:28.302Z,98340.69
2023-04-15T11:20:59.180Z,98340.69
2023-04-15T11:23:32.210Z,98339.88
2023-04-15T11:26:00.514Z,98344.41
2023-04-15T11:28:29.030Z,98344.44
2023-04-15T11:30:57.107Z,98345.56
2023-04-15T11:33:25.273Z,98352.16
2023-04-15T11:35:54.970Z,98354.59
2023-04-15T11:38:24.068Z,98345.13
2023-04-15T11:40:52.566Z,98357.44
2023-04-15T11:43:21.736Z,98365.53
2023-04-15T11:45:52.837Z,98365.19
2023-04-15T11:48:21.303Z,98371.84
2023-04-15T11:50:54.332Z,98369.47
2023-04-15T11:53:22.265Z,98368.09
2023-04-15T11:55:52.694Z,98376.13
2023-04-15T11:58:22.035Z,98376.34
2023-04-15T12:00:52.414Z,98366.59
2023-04-15T12:03:25.169Z,98383.69
2023-04-15T12:06:13.504Z,98386.19
2023-04-15T12:08:57.174Z,98392.03
2023-04-15T12:11:31.648Z,98397.03
2023-04-15T12:14:00.881Z,98394.81
2023-04-15T12:16:29.213Z,98399.50
2023-04-15T12:18:58.917Z,98394.84
2023-04-15T12:21:29.133Z,98397.78
2023-04-15T12:23:57.865Z,98397.44
2023-04-15T12:26:31.945Z,98405.06
2023-04-15T12:29:02.510Z,98411.28
2023-04-15T12:31:30.349Z,98418.59
2023-04-15T12:33:58.569Z,98415.47
2023-04-15T12:36:26.336Z,98426.00
2023-04-15T12:38:54.074Z,98442.84
2023-04-15T12:41:22.358Z,98431.63
2023-04-15T12:43:51.522Z,98434.63
2023-04-15T12:46:20.319Z,98436.19
2023-04-15T12:48:48.626Z,98445.78
2023-04-15T12:51:16.329Z,98438.16
2023-04-15T12:53:44.000Z,98453.25
2023-04-15T12:56:11.541Z,98440.84
2023-04-15T12:58:39.141Z,98448.69
2023-04-15T13:01:08.123Z,98444.75
2023-04-15T13:03:35.965Z,98450.28
2023-04-15T13:06:04.768Z,98451.97
2023-04-15T13:08:32.449Z,98469.25
2023-04-15T13:11:00.309Z,98469.34
2023-04-15T13:13:28.297Z,98459.97
2023-04-15T13:15:56.396Z,98469.19
2023-04-15T13:18:25.744Z,98467.66
2023-04-15T13:20:53.365Z,98468.97
2023-04-15T13:23:21.154Z,98465.41
2023-04-15T13:25:48.759Z,98469.88
2023-04-15T13:28:16.487Z,98475.06
2023-04-15T13:30:44.093Z,98484.31
2023-04-15T13:33:11.680Z,98489.69
2023-04-15T13:35:40.734Z,98488.41
2023-04-15T13:38:08.337Z,98488.53
2023-04-15T13:40:35.944Z,98484.31
2023-04-15T13:43:04.065Z,98483.78
2023-04-15T13:45:31.731Z,98489.69
2023-04-15T13:47:59.401Z,98492.88
2023-04-15T13:50:27.013Z,98502.28
2023-04-15T13:52:55.943Z,98500.16
2023-04-15T13:55:26.148Z,98514.44
2023-04-15T13:57:54.379Z,98512.28
2023-04-15T14:00:22.213Z,98521.91
2023-04-15T14:02:50.069Z,98521.81
2023-04-15T14:05:17.930Z,98518.53
2023-04-15T14:07:45.669Z,98526.91
2023-04-15T14:10:14.595Z,98530.03
2023-04-15T14:12:42.320Z,98541.47
2023-04-15T14:15:10.753Z,98545.25
2023-04-15T14:17:38.691Z,98547.72
2023-04-15T14:20:09.341Z,98549.16
2023-04-15T14:22:36.944Z,98562.09
2023-04-15T14:25:05.004Z,98558.97
2023-04-15T14:27:33.905Z,98554.53
2023-04-15T14:30:01.702Z,98563.66
2023-04-15T14:32:29.367Z,98566.13
2023-04-15T14:34:57.228Z,98575.91
2023-04-15T14:37:24.975Z,98577.94
2023-04-15T14:39:52.597Z,98572.25
2023-04-15T14:42:20.226Z,98579.19
2023-04-15T14:44:49.685Z,98593.50
2023-04-15T14:47:17.445Z,98609.38
2023-04-15T14:49:45.358Z,98610.94
2023-04-15T14:52:13.426Z,98602.25
2023-04-15T14:54:40.961Z,98613.41
2023-04-15T14:57:09.088Z,98616.63
2023-04-15T14:59:36.773Z,98614.16
2023-04-15T15:02:05.987Z,98623.06
2023-04-15T15:04:34.025Z,98637.09
2023-04-15T15:07:01.817Z,98635.81
2023-04-15T15:09:29.854Z,98636.34
2023-04-15T15:11:57.801Z,98626.91
2023-04-15T15:14:25.941Z,98640.34
2023-04-15T15:16:53.859Z,98633.56
2023-04-15T15:19:23.665Z,98650.91
2023-04-15T15:21:51.438Z,98642.72
2023-04-15T15:24:19.065Z,98650.38
2023-04-15T15:26:46.835Z,98646.81
2023-04-15T15:29:14.517Z,98653.69
2023-04-15T15:31:42.322Z,98649.13
2023-04-15T15:34:10.130Z,98664.63
2023-04-15T15:36:39.256Z,98665.16
2023-04-15T15:39:07.028Z,98664.94
2023-04-15T15:41:34.861Z,98673.91
2023-04-15T15:44:02.458Z,98677.31
2023-04-15T15:46:31.518Z,98683.34
2023-04-15T15:48:59.205Z,98675.06
2023-04-15T15:51:27.520Z,98693.81
2023-04-15T15:53:56.660Z,98681.34
2023-04-15T15:56:24.320Z,98689.41
2023-04-15T15:58:51.913Z,98690.09
2023-04-15T16:01:19.730Z,98686.06
2023-04-15T16:03:47.508Z,98691.16
2023-04-15T16:06:15.131Z,98690.84
2023-04-15T16:08:42.852Z,98695.13
2023-04-15T16:11:11.776Z,98707.72
2023-04-15T16:13:39.370Z,98719.41
2023-04-15T16:16:07.558Z,98714.91
2023-04-15T16:18:35.537Z,98708.09
2023-04-15T16:21:03.153Z,98709.66
2023-04-15T16:23:30.877Z,98719.44
2023-04-15T16:25:58.600Z,98723.06
2023-04-15T16:28:27.589Z,98723.50
2023-04-15T16:30:55.936Z,98731.81
2023-04-15T16:33:23.522Z,98727.69
2023-04-15T16:35:51.990Z,98727.03
2023-04-15T16:38:19.624Z,98726.97
2023-04-15T16:40:48.261Z,98740.34
2023-04-15T16:43:16.010Z,98754.97
2023-04-15T16:45:50.665Z,98757.69
2023-04-15T16:48:18.681Z,98761.44
2023-04-15T16:50:46.344Z,98757.75
2023-04-15T16:53:15.404Z,98753.69
2023-04-15T16:55:43.001Z,98759.47
2023-04-15T16:58:10.662Z,98761.84
2023-04-15T17:00:38.313Z,98767.03
2023-04-15T17:03:07.441Z,98775.50
2023-04-15T17:05:35.282Z,98767.97
2023-04-15T17:08:02.912Z,98764.03
2023-04-15T17:10:31.706Z,98782.88
2023-04-15T17:12:59.854Z,98781.66
2023-04-15T17:15:27.882Z,98785.66
2023-04-15T17:17:55.742Z,98786.44
2023-04-15T17:20:24.852Z,98782.81
2023-04-15T17:22:52.640Z,98794.19
2023-04-15T17:25:20.814Z,98791.16
2023-04-15T17:27:48.391Z,98790.06
2023-04-15T17:30:16.154Z,98802.81
2023-04-15T17:32:43.822Z,98800.31
2023-04-15T17:35:11.572Z,98808.19
2023-04-15T17:37:40.890Z,98810.81
2023-04-15T17:40:09.482Z,98804.66
2023-04-15T17:42:37.142Z,98801.44
2023-04-15T17:45:05.669Z,98805.97
2023-04-15T17:47:33.481Z,98814.84
2023-04-15T17:50:01.104Z,98818.19
2023-04-15T17:52:28.885Z,98820.22
2023-04-15T17:54:57.853Z,98831.38
2023-04-15T17:57:25.772Z,98831.38
2023-04-15T17:59:53.474Z,98832.44
2023-04-15T18:02:21.264Z,98832.25
2023-04-15T18:04:49.065Z,98836.13
2023-04-15T18:07:16.749Z,98841.50
2023-04-15T18:09:44.381Z,98839.00
2023-04-15T18:12:13.350Z,98838.16
2023-04-15T18:14:40.918Z,98847.16
2023-04-15T18:17:08.553Z,98856.59
2023-04-15T18:19:36.156Z,98836.13
2023-04-15T18:22:03.996Z,98856.16
2023-04-15T18:24:31.633Z,98855.75
2023-04-15T18:26:59.919Z,98863.97
2023-04-15T18:29:30.820Z,98863.97
2023-04-15T18:31:59.838Z,98863.25
2023-04-15T18:34:27.573Z,98871.44
2023-04-15T18:36:56.686Z,98875.84
2023-04-15T18:39:24.293Z,98878.09
2023-04-15T18:41:51.860Z,98880.97
2023-04-15T18:44:19.488Z,98890.69
2023-04-15T18:46:49.417Z,98891.72
2023-04-15T18:49:17.020Z,98887.41
2023-04-15T18:51:44.592Z,98886.75
2023-04-15T18:54:12.198Z,98901.78
2023-04-15T18:56:39.951Z,98897.19
2023-04-15T18:59:18.772Z,98886.94
2023-04-15T19:01:56.628Z,98916.13
2023-04-15T19:04:24.322Z,98911.78
2023-04-15T19:06:51.988Z,98916.81
2023-04-15T19:09:19.862Z,98916.00
2023-04-15T19:11:47.594Z,98931.91
2023-04-15T19:14:15.191Z,98945.78
2023-04-15T19:16:42.841Z,98945.59
2023-04-15T19:19:14.328Z,98947.78
2023-04-15T19:21:42.061Z,98956.28
2023-04-15T19:24:09.672Z,98956.41
2023-04-15T19:26:37.728Z,98950.00
2023-04-15T19:29:05.489Z,98964.72
2023-04-15T19:31:33.165Z,98966.59
2023-04-15T19:34:00.905Z,98961.75
2023-04-15T19:36:29.946Z,98963.25
2023-04-15T19:38:57.545Z,98967.53
2023-04-15T19:41:25.123Z,98971.31
2023-04-15T19:43:52.765Z,98979.97
2023-04-15T19:46:20.405Z,98976.50
2023-04-15T19:48:48.046Z,98973.50
2023-04-15T19:51:15.775Z,98985.91
2023-04-15T19:53:44.636Z,98986.81
2023-04-15T19:56:12.225Z,98986.66
2023-04-15T19:58:39.760Z,99002.34
2023-04-15T20:01:07.342Z,98991.41
2023-04-15T20:03:35.127Z,99002.09
2023-04-15T20:06:03.138Z,99003.28
2023-04-15T20:08:30.704Z,99006.69
2023-04-15T20:11:01.044Z,99005.78
2023-04-15T20:13:28.761Z,99009.38
2023-04-15T20:15:56.349Z,99002.84
2023-04-15T20:18:24.004Z,99006.38
2023-04-15T20:20:51.620Z,99014.13
2023-04-15T20:23:19.332Z,99018.38
2023-04-15T20:25:46.909Z,99014.81
2023-04-15T20:28:17.905Z,99017.06
2023-04-15T20:30:45.642Z,99023.31
2023-04-15T20:33:13.173Z,99012.13
2023-04-15T20:35:41.145Z,99023.31
2023-04-15T20:38:08.759Z,99009.91
2023-04-15T20:40:36.360Z,99022.91
2023-04-15T20:43:03.966Z,99026.84
2023-04-15T20:45:32.874Z,99028.38
2023-04-15T20:48:00.567Z,99022.25
2023-04-15T20:50:28.183Z,99026.59
2023-04-15T20:52:55.816Z,99029.34
2023-04-15T20:55:23.408Z,99027.50
2023-04-15T20:57:51.170Z,99030.13
2023-04-15T21:00:18.972Z,99034.69
2023-04-15T21:02:48.019Z,99037.91
2023-04-15T21:05:15.951Z,99037.91
2023-04-15T21:07:43.622Z,99043.34
2023-04-15T21:10:11.883Z,99034.25
2023-04-15T21:12:41.020Z,99045.78
2023-04-15T21:15:09.566Z,99052.28
2023-04-15T21:17:37.189Z,99053.84
2023-04-15T21:20:07.229Z,99043.34
2023-04-15T21:22:34.898Z,99053.00
2023-04-15T21:25:02.474Z,99061.69
2023-04-15T21:27:30.050Z,99062.47
2023-04-15T21:29:57.666Z,99056.41
2023-04-15T21:32:25.448Z,99060.97
2023-04-15T21:34:53.076Z,99060.28
2023-04-15T21:37:21.985Z,99066.28
2023-04-15T21:39:49.617Z,99063.06
2023-04-15T21:42:17.263Z,99066.59
2023-04-15T21:44:44.922Z,99070.94
2023-04-15T21:47:12.739Z,99079.63
2023-04-15T21:49:40.470Z,99083.16
2023-04-15T21:52:08.067Z,99083.28
2023-04-15T21:54:38.007Z,99082.47
2023-04-15T21:57:05.624Z,99092.81
2023-04-15T21:59:33.223Z,99086.88
2023-04-15T22:02:01.112Z,99087.84
2023-04-15T22:04:28.989Z,99088.44
2023-04-15T22:07:01.483Z,99088.59
2023-04-15T22:09:29.093Z,99085.84
2023-04-15T22:11:59.280Z,99081.50
2023-04-15T22:14:26.892Z,99088.38
2023-04-15T22:16:54.656Z,99094.88
2023-04-15T22:19:22.296Z,99101.94
2023-04-15T22:21:50.662Z,99103.59
2023-04-15T22:24:34.048Z,99100.06
2023-04-15T22:27:07.413Z,99100.97
2023-04-15T22:29:35.082Z,99108.59
2023-04-15T22:32:02.728Z,99107.94
2023-04-15T22:34:30.382Z,99109.19
2023-04-15T22:36:58.018Z,99102.06
2023-04-15T22:39:25.647Z,99102.00
2023-04-15T22:41:53.247Z,99106.28
2023-04-15T22:44:22.197Z,99112.69
2023-04-15T22:46:51.750Z,99117.94
2023-04-15T22:49:19.534Z,99127.75
2023-04-15T22:51:47.102Z,99123.13
2023-04-15T22:54:14.724Z,99130.25
2023-04-15T22:56:42.389Z,99133.63
2023-04-15T22:59:10.205Z,99128.66
2023-04-15T23:01:39.421Z,99135.19
2023-04-15T23:04:07.736Z,99141.84
2023-04-15T23:06:36.374Z,99132.66
2023-04-15T23:09:04.082Z,99124.09
2023-04-15T23:11:31.751Z,99128.31
2023-04-15T23:13:59.342Z,99131.06
2023-04-15T23:16:26.913Z,99126.88
2023-04-15T23:18:55.975Z,99124.25
2023-04-15T23:21:25.962Z,99126.66
2023-04-15T23:23:53.880Z,99135.34
2023-04-15T23:26:21.540Z,99144.94
2023-04-15T23:28:49.142Z,99143.16
2023-04-15T23:31:16.750Z,99141.19
2023-04-15T23:33:44.397Z,99146.66
2023-04-15T23:36:13.337Z,99151.69
2023-04-15T23:38:41.065Z,99150.03
2023-04-15T23:41:09.105Z,99142.31
2023-04-15T23:43:36.780Z,99151.16
2023-04-15T23:46:04.516Z,99151.16
2023-04-15T23:48:32.608Z,99157.34
2023-04-15T23:51:00.482Z,99156.50
2023-04-15T23:53:30.014Z,99148.03
2023-04-15T23:55:57.857Z,99141.75
2023-04-15T23:58:25.677Z,99151.50
